首页
METAR-TAF:

METAR-TAF

机场 :

Teslin, 育康省, 加拿大

纬度: 60-10N, 经度: 132-44W, 海拔: 711米

当前天气观测

该预报发布于2小时和0分钟前的00:00 UTC
风速2节,风向西转西南
温度 -5°C
湿度 32%
气压 1011 hPa
能見度: 48.3公里
多云层高于11000英尺
阴天层高于21000英尺

METAR: CYZW 040000Z 25002KT 30SM BKN110 OVC210 M05/M19 A2985 RMK AC6CI2 LOAST STFD OBS/NXT 041600Z SLP169

时间: 19:00 (02:00 UTC)

预报

该预报发布于8小时和22分钟前的17:38 UTC
预报有效从03日的 18点(UTC)到 03日的 24点(UTC)
风速3节,风向多变
能見度: 10公里
散云层高于10000英尺
阴天层高于15000英尺

TAF: CYZW 031738Z 0318/0324 VRB03KT P6SM SCT100 OVC150 RMK NXT FCST WILL BE ISSUED AT 041745Z

超过4000个机场的气象观测和天气预报(METAR&TAF报告)。

可查询的气象台以黄色和红色小点在地图上表示。

将鼠标移到小点上方,可查看气象台名称。

然后点击查看天气观测和预报。

如需切换地图:点击带黑十字的绿色按钮放大地图;点击带横线的绿色按钮缩小地图;或者点击绿色箭头查看邻近地区的地图。


METAR-TAF: